Latest Weather Observations for Sheoaks

IDV60901

Issued at 11:51 am EST Saturday 25 April 2015 (issued every 10 minutes, with the page automatically refreshed every 10 minutes)

About weather observations | Map of Melbourne area stations | Latest observations for Melbourne area | Other Formats
Station Details ID: 087168 Name: SHEOAKS Lat: -37.91 Lon: 144.13 Height: 236.7 m
Data from the previous 72 hours. | See also: Recent months at Sheoaks
Date/Time
EST
Tmp

°C
App
Tmp
°C
Dew
Point
°C
Rel
Hum
%
Delta-T

°C
Wind Press
QNH
hPa
Press
MSL
hPa
Rain
since
9 am
mm
Dir
 
Spd
km/h
Gust
km/h
Spd
kts
Gust
kts
25/11:30am 11.3 10.0 10.0 92 0.7 W 7 11 4 6 1009.4 1009.2 0.0
25/11:00am 11.0 9.7 9.8 92 0.6 W 7 9 4 5 1009.5 1009.3 0.0
25/10:30am 10.6 8.7 9.2 91 0.7 W 9 15 5 8 1009.3 1009.1 0.0
25/10:00am 10.7 8.9 9.3 91 0.7 W 9 15 5 8 1009.2 1009.0 0.0
25/09:30am 10.3 8.4 9.1 92 0.6 W 9 15 5 8 1009.3 1009.1 0.0
25/09:00am 9.8 7.4 8.7 93 0.5 WNW 11 15 6 8 1009.0 1008.8 3.6
25/08:30am 9.4 6.9 8.3 93 0.5 WNW 11 17 6 9 1008.5 1008.3 3.6
25/08:00am 9.2 7.1 8.1 93 0.5 NW 9 19 5 10 1008.0 1007.7 3.6
25/07:30am 9.3 7.6 7.7 90 0.8 SSW 6 9 3 5 1007.5 1007.2 3.2
25/07:00am 9.2 7.5 7.5 89 0.8 WNW 6 9 3 5 1007.5 1007.2 2.8
25/06:30am 9.2 7.5 7.5 89 0.8 WNW 6 6 3 3 1007.5 1007.2 2.8
25/06:00am 9.4 7.5 7.5 88 0.9 W 7 11 4 6 1007.0 1006.8 2.8
25/05:30am 9.4 7.5 7.5 88 0.9 W 7 9 4 5 1006.9 1006.7 2.8
25/05:00am 9.3 7.4 7.6 89 0.8 NW 7 9 4 5 1006.9 1006.7 2.8
25/04:30am 9.2 7.4 7.8 91 0.7 NW 7 9 4 5 1006.6 1006.4 2.8
25/04:00am 9.2 7.0 7.8 91 0.7 WNW 9 17 5 9 1006.7 1006.5 2.8
25/03:30am 9.7 7.4 7.6 87 1.0 W 9 15 5 8 1006.6 1006.4 2.8
25/03:00am 9.8 7.9 7.7 87 1.0 WNW 7 13 4 7 1006.5 1006.3 2.8
25/02:30am 9.8 8.0 7.9 88 0.9 WNW 7 11 4 6 1006.4 1006.2 2.8
25/02:00am 9.7 7.5 7.8 88 0.9 NW 9 13 5 7 1006.6 1006.4 2.8
25/01:30am 9.8 8.0 7.9 88 0.9 WNW 7 11 4 6 1006.3 1006.1 2.8
25/01:00am 10.2 8.2 8.5 89 0.8 W 9 15 5 8 1006.3 1006.1 2.8
25/12:30am 10.7 8.1 9.5 92 0.6 WNW 13 19 7 10 1006.3 1006.1 2.8
25/12:00am 11.0 9.9 9.9 93 0.6 WNW 6 7 3 4 1006.5 1006.3 2.8
 
Date/Time
EST
Tmp

°C
App
Tmp
°C
Dew
Point
°C
Rel
Hum
%
Delta-T

°C
Wind Press
QNH
hPa
Press
MSL
hPa
Rain
since
9 am
mm
Dir
 
Spd
km/h
Gust
km/h
Spd
kts
Gust
kts
24/11:30pm 11.1 10.0 10.0 93 0.6 WNW 6 9 3 5 1006.1 1005.9 2.8
24/11:00pm 11.4 10.2 10.3 93 0.6 WNW 7 11 4 6 1006.3 1006.1 2.8
24/10:30pm 11.4 9.9 10.5 94 0.5 WNW 9 13 5 7 1006.1 1005.9 2.8
24/10:00pm 11.5 10.5 10.4 93 0.6 NW 6 9 3 5 1006.1 1005.9 2.8
24/09:30pm 11.7 9.8 10.6 93 0.6 WNW 11 17 6 9 1006.2 1006.0 2.8
24/09:00pm 11.7 9.4 10.6 93 0.6 WNW 13 19 7 10 1006.2 1006.0 2.6
24/08:30pm 11.8 10.3 10.4 91 0.7 WNW 9 15 5 8 1006.2 1006.0 1.8
24/08:00pm 12.1 8.9 10.0 87 1.1 WNW 17 24 9 13 1005.8 1005.6 0.4
24/07:30pm 14.3 13.4 10.7 79 1.9 NNW 6 7 3 4 1005.1 1004.9 0.0
24/07:00pm 14.7 14.9 10.5 76 2.2 CALM 0 0 0 0 1004.8 1004.5 0.0
24/06:30pm 15.4 15.2 10.6 73 2.6 SSW 2 4 1 2 1004.5 1004.2 0.0
24/06:00pm 15.8 15.3 10.6 71 2.8 SW 4 6 2 3 1004.3 1004.0 0.0
24/05:30pm 16.1 15.9 10.6 70 3.0 WSW 2 4 1 2 1004.0 1003.7 0.0
24/05:00pm 16.8 15.5 10.0 64 3.6 WNW 7 13 4 7 1003.6 1003.3 0.0
24/04:30pm 17.7 16.1 10.3 62 4.0 WNW 9 15 5 8 1003.4 1003.1 0.0
24/04:00pm 17.2 15.2 10.3 64 3.7 WNW 11 17 6 9 1003.5 1003.2 0.0
24/03:30pm 17.5 16.1 10.9 65 3.6 W 9 15 5 8 1003.4 1003.1 0.0
24/03:00pm 16.3 14.4 10.6 69 3.1 W 11 19 6 10 1003.4 1003.1 0.0
24/02:30pm 16.0 13.8 10.7 71 2.8 W 13 19 7 10 1003.5 1003.2 0.0
24/02:00pm 16.1 13.9 10.8 71 2.9 WNW 13 22 7 12 1003.7 1003.4 0.0
24/01:30pm 15.4 13.8 11.4 77 2.2 W 11 17 6 9 1003.9 1003.6 0.0
24/01:00pm 15.5 13.9 11.5 77 2.2 W 11 17 6 9 1004.2 1003.9 0.0
24/12:30pm 15.3 14.1 11.7 79 2.0 W 9 13 5 7 1004.4 1004.1 0.0
24/12:00pm 15.6 14.4 11.6 77 2.2 W 9 15 5 8 1004.7 1004.4 0.0
24/11:30am 15.2 14.1 11.8 80 1.9 NW 9 15 5 8 1005.2 1005.0 0.0
24/11:00am 14.1 13.3 11.8 86 1.3 NNW 7 9 4 5 1005.2 1005.0 0.0
24/10:30am 13.7 12.5 11.6 87 1.1 WNW 9 13 5 7 1005.3 1005.1 0.0
24/10:00am 13.5 12.3 11.7 89 1.0 WNW 9 15 5 8 1005.3 1005.1 0.0
24/09:30am 12.9 10.5 11.5 91 0.8 WNW 15 20 8 11 1005.5 1005.3 0.0
24/09:00am 12.4 10.0 11.5 94 0.5 WNW 15 20 8 11 1005.7 1005.5 0.0
24/08:30am 11.8 10.0 11.0 95 0.4 WNW 11 15 6 8 1005.8 1005.6 0.0
24/08:00am 11.8 10.7 10.7 93 0.6 WSW 7 11 4 6 1005.2 1005.0 0.0
24/07:30am 11.7 10.6 10.6 93 0.6 WNW 7 13 4 7 1005.4 1005.2 0.0
24/07:00am 11.7 10.2 10.6 93 0.6 NW 9 13 5 7 1005.4 1005.2 0.0
24/06:30am 12.0 10.6 10.9 93 0.6 NW 9 15 5 8 1005.3 1005.1 0.0
24/06:00am 12.3 10.5 11.0 92 0.7 NW 11 17 6 9 1005.4 1005.2 0.0
24/05:30am 12.4 11.1 11.3 93 0.6 NW 9 15 5 8 1005.5 1005.3 0.0
24/05:00am 12.4 11.2 11.5 94 0.5 NW 9 15 5 8 1005.5 1005.3 0.0
24/04:30am 12.6 11.8 11.7 94 0.5 NNW 7 9 4 5 1005.7 1005.5 0.0
24/04:00am 13.1 12.6 12.0 93 0.6 NW 6 7 3 4 1005.8 1005.6 0.0
24/03:30am 13.4 13.4 12.3 93 0.6 NNW 4 6 2 3 1006.2 1006.0 0.0
24/03:00am 13.4 13.1 12.6 95 0.4 WNW 6 13 3 7 1006.7 1006.5 0.0
24/02:30am 13.5 13.3 12.9 96 0.3 WNW 6 9 3 5 1007.3 1007.0 0.0
24/02:00am 13.4 13.5 12.8 96 0.3 NNW 4 6 2 3 1007.8 1007.5 0.0
24/01:30am 13.4 13.8 12.6 95 0.4 N 2 4 1 2 1007.8 1007.5 0.0
24/01:00am 13.6 14.5 12.8 95 0.4 CALM 0 0 0 0 1008.3 1008.0 0.0
24/12:30am 13.8 14.7 12.9 94 0.5 CALM 0 0 0 0 1008.6 1008.4 0.0
24/12:00am 13.8 14.7 12.9 94 0.5 CALM 0 0 0 0 1009.0 1008.8 0.0
 
Date/Time
EST
Tmp

°C
App
Tmp
°C
Dew
Point
°C
Rel
Hum
%
Delta-T

°C
Wind Press
QNH
hPa
Press
MSL
hPa
Rain
since
9 am
mm
Dir
 
Spd
km/h
Gust
km/h
Spd
kts
Gust
kts
23/11:30pm 13.8 14.7 12.9 94 0.5 CALM 0 0 0 0 1009.5 1009.3 0.0
23/11:00pm 13.8 14.7 12.9 94 0.5 CALM 0 0 0 0 1009.9 1009.7 0.0
23/10:30pm 13.8 14.7 12.9 94 0.5 CALM 0 0 0 0 1010.2 1010.0 0.0
23/10:00pm 13.9 14.0 12.8 93 0.6 E 4 4 2 2 1010.6 1010.4 0.0
23/09:30pm 14.0 14.2 12.9 93 0.6 E 4 6 2 3 1011.0 1010.8 0.0
23/09:00pm 14.0 14.5 12.9 93 0.6 E 2 4 1 2 1011.6 1011.3 0.0
23/08:30pm 14.0 14.2 12.9 93 0.6 ESE 4 6 2 3 1011.7 1011.4 0.0
23/08:00pm 14.0 13.7 12.7 92 0.7 ESE 6 7 3 4 1012.1 1011.9 0.0
23/07:30pm 14.0 13.1 12.7 92 0.7 ESE 9 13 5 7 1012.3 1012.1 0.0
23/07:00pm 14.1 13.2 12.7 91 0.8 SE 9 13 5 7 1012.6 1012.4 0.0
23/06:30pm 14.1 13.6 12.7 91 0.8 SE 7 11 4 6 1013.0 1012.8 0.0
23/06:00pm 14.1 13.6 12.7 91 0.8 SE 7 13 4 7 1013.0 1012.8 0.0
23/05:30pm 14.3 13.8 12.5 89 1.0 SE 7 11 4 6 1012.9 1012.7 0.0
23/05:00pm 14.7 13.7 12.4 86 1.3 SE 9 11 5 6 1012.9 1012.7 0.0
23/04:30pm 14.7 13.7 12.2 85 1.4 SE 9 15 5 8 1013.2 1013.0 0.0
23/04:00pm 15.0 14.0 12.3 84 1.5 SE 9 13 5 7 1013.4 1013.2 0.0
23/03:30pm 15.4 14.3 12.0 80 1.9 SE 9 13 5 7 1013.7 1013.5 0.0
23/03:00pm 15.3 13.8 11.9 80 1.9 SE 11 17 6 9 1014.1 1013.9 0.0
23/02:30pm 15.5 13.8 12.3 81 1.8 SE 13 17 7 9 1014.4 1014.2 0.0
23/02:00pm 15.3 13.4 11.9 80 1.9 SE 13 19 7 10 1014.8 1014.6 0.0
23/01:30pm 15.4 13.1 11.6 78 2.1 ESE 15 22 8 12 1014.8 1014.6 0.0
23/01:00pm 15.5 13.2 11.7 78 2.1 SE 15 22 8 12 1015.3 1015.1 0.0
23/12:30pm 15.7 12.5 11.1 74 2.5 ESE 19 26 10 14 1015.8 1015.7 0.0
23/12:00pm 16.2 13.0 11.4 73 2.6 ESE 19 24 10 13 1016.8 1016.6 0.0
23/11:30am 15.3 12.1 11.3 77 2.2 ESE 19 26 10 14 1017.5 1017.3 0.0
23/11:00am 15.7 11.9 11.3 75 2.4 ESE 22 32 12 17 1017.9 1017.7 0.0
23/10:30am 15.9 12.3 11.7 76 2.3 ESE 22 32 12 17 1018.2 1018.0 0.0
23/10:00am 14.9 12.0 12.2 84 1.5 ESE 19 24 10 13 1018.7 1018.5 0.0
23/09:30am 13.9 11.3 13.1 95 0.4 ESE 19 28 10 15 1019.0 1018.8 0.0
23/09:00am 13.2 12.4 12.9 98 0.2 SE 9 13 5 7 1019.4 1019.3 0.4
23/08:30am 12.4 11.7 12.1 98 0.2 SE 7 11 4 6 1019.7 1019.6 0.4
23/08:00am 12.1 11.9 11.8 98 0.2 SE 4 6 2 3 1019.8 1019.7 0.4
23/07:30am 11.7 12.1 11.4 98 0.2 CALM 0 6 0 3 1019.7 1019.6 0.4
23/07:00am 11.4 11.0 11.1 98 0.2 SE 4 6 2 3 1019.5 1019.4 0.4
23/06:30am 11.7 10.9 11.2 97 0.3 SE 6 9 3 5 1019.5 1019.4 0.4
23/06:00am 12.0 11.1 11.5 97 0.3 SE 7 11 4 6 1019.6 1019.5 0.4
23/05:30am 12.3 11.2 12.0 98 0.2 ESE 9 13 5 7 1019.6 1019.5 0.4
23/05:00am 12.3 10.8 11.8 97 0.3 ESE 11 15 6 8 1019.6 1019.5 0.4
23/04:30am 12.7 11.3 12.2 97 0.3 ESE 11 19 6 10 1019.6 1019.5 0.4
23/04:00am 12.7 11.3 12.2 97 0.3 ESE 11 19 6 10 1019.7 1019.6 0.4
23/03:30am 12.7 11.0 12.4 98 0.2 ESE 13 17 7 9 1019.9 1019.8 0.4
23/03:00am 12.7 11.7 12.4 98 0.2 ESE 9 13 5 7 1020.2 1020.1 0.4
23/02:30am 12.9 12.0 12.6 98 0.2 ESE 9 17 5 9 1020.8 1020.6 0.4
23/02:00am 13.0 12.5 12.7 98 0.2 SE 7 11 4 6 1021.1 1020.9 0.4
23/01:30am 13.0 12.1 12.7 98 0.2 SE 9 13 5 7 1021.2 1021.0 0.4
23/01:00am 13.0 11.8 12.7 98 0.2 ESE 11 17 6 9 1021.1 1020.9 0.4
23/12:30am 13.2 11.6 12.9 98 0.2 SE 13 19 7 10 1021.4 1021.2 0.4
23/12:00am 13.3 11.3 12.8 97 0.3 SE 15 20 8 11 1021.7 1021.5 0.4
 
Date/Time
EST
Tmp

°C
App
Tmp
°C
Dew
Point
°C
Rel
Hum
%
Delta-T

°C
Wind Press
QNH
hPa
Press
MSL
hPa
Rain
since
9 am
mm
Dir
 
Spd
km/h
Gust
km/h
Spd
kts
Gust
kts
22/11:30pm 13.3 11.3 12.8 97 0.3 ESE 15 20 8 11 1022.2 1022.0 0.4
22/11:00pm 13.3 10.5 12.7 96 0.3 SE 19 24 10 13 1022.4 1022.2 0.4
22/10:30pm 13.6 12.4 12.8 95 0.4 SE 11 15 6 8 1022.7 1022.5 0.0
22/10:00pm 13.6 12.0 12.7 94 0.5 SE 13 22 7 12 1022.9 1022.8 0.0
22/09:30pm 13.6 11.9 12.5 93 0.6 SE 13 17 7 9 1023.2 1023.1 0.0
22/09:00pm 13.7 11.2 12.3 91 0.8 SE 17 24 9 13 1023.1 1023.0 0.0
22/08:30pm 13.8 12.0 12.2 90 0.9 SE 13 19 7 10 1023.2 1023.1 0.0
22/08:00pm 13.8 11.6 12.0 89 1.0 SSE 15 22 8 12 1023.3 1023.2 0.0
22/07:30pm 13.8 12.0 12.0 89 1.0 SSE 13 22 7 12 1023.6 1023.5 0.0
22/07:00pm 13.9 12.4 11.9 88 1.1 SSE 11 17 6 9 1023.7 1023.6 0.0
22/06:30pm 14.0 12.1 11.9 87 1.1 SSE 13 20 7 11 1023.4 1023.3 0.0
22/06:00pm 14.1 12.6 12.0 87 1.1 SSE 11 20 6 11 1023.4 1023.3 0.0
22/05:30pm 14.3 11.6 11.8 85 1.4 SSE 17 24 9 13 1023.0 1022.9 0.0
22/05:00pm 14.7 12.0 11.7 82 1.6 SSE 17 32 9 17 1022.9 1022.8 0.0
22/04:30pm 15.3 12.9 11.5 78 2.1 SSE 15 24 8 13 1022.9 1022.8 0.0
22/04:00pm 14.9 12.5 11.3 79 1.9 SE 15 24 8 13 1023.3 1023.2 0.0
22/03:30pm 14.9 12.5 11.3 79 1.9 SE 15 28 8 15 1023.6 1023.5 0.0
22/03:00pm 15.2 12.4 11.2 77 2.2 SSE 17 24 9 13 1023.7 1023.6 0.0
22/02:30pm 15.2 11.9 10.8 75 2.4 SE 19 30 10 16 1024.0 1023.9 0.0
22/02:00pm 15.2 11.7 11.0 76 2.3 SE 20 28 11 15 1024.1 1024.0 0.0
22/01:30pm 15.7 12.4 10.9 73 2.6 SE 19 28 10 15 1024.3 1024.2 0.0
22/01:00pm 16.5 13.0 10.8 69 3.1 SE 20 30 11 16 1024.7 1024.6 0.0
22/12:30pm 15.7 12.1 10.7 72 2.7 SE 20 28 11 15 1025.3 1025.1 0.0
22/12:00pm 15.9 12.7 11.1 73 2.6 SE 19 28 10 15 1025.6 1025.4 0.0

Latest Capital City Observations: Canberra | Sydney | Melbourne | Brisbane | Adelaide | Perth | Hobart | Darwin

Other Formats:

Comma delimited format used in spreadsheet applications
http://www.bom.gov.au/fwo/IDV60901/IDV60901.94863.axf

JavaScript Object Notation format (JSON) in row-major order
http://www.bom.gov.au/fwo/IDV60901/IDV60901.94863.json